PWSweather.com
Personal Weather Stations
Station Observations
SHAHALMS1
Eftra, Falkenberg, HA

EftraFalkenberg, HA

Lat: 56.85, Lon: 12.65

Elevation: 140

Station Type:

http://hem.passagen.se/risarp101

High Low Average
Temperature 65.3°F18.5°C 50.9°F10.5°C 57.7°F14.3°C
Dew Point 53.2°F11.8°C 44.1°F6.7°C 48.7°F9.3°C
Winds 8.2 mph 13.2 kmh Calm Calm 4.0 mph SSW6.4 kmh SSW
Wind Gusts 22.5 mph36.2 kmh -- 11.0 mph17.7 kmh
Humidity 91% 52% 73%
Pressure 29.83 in1010.2 mb 29.59 in1002.0 mb -
Precipitation 0.10 in2.5 mm - -
Hour Temp Dew Point Humidity Winds Wind Gusts Pressure Precip Precip Rate Daily Precip Total
12:00 AM 52.0°F11.1°C 48.5°F9.2°C 88% 3.1 mph SE5.0 kmh SE 8.9 mph14.3 kmh 29.62 in1003.0 mb 0.05 in1.3 mm 0.00 in0.0 mm 0.05 in1.3 mm
12:15 AM 51.8°F11.0°C 48.4°F9.1°C 88% 1.5 mph S2.4 kmh S 7.9 mph12.7 kmh 29.62 in1003.0 mb 0.00 in0.0 mm 0.00 in0.0 mm 0.05 in1.3 mm
12:30 AM 51.8°F11.0°C 48.7°F9.3°C 89% 5.3 mph S8.5 kmh S 15.0 mph24.1 kmh 29.62 in1003.0 mb 0.00 in0.0 mm 0.00 in0.0 mm 0.05 in1.3 mm
12:45 AM 51.8°F11.0°C 48.7°F9.3°C 89% 5.5 mph SE8.9 kmh SE 12.9 mph20.8 kmh 29.59 in1002.0 mb 0.00 in0.0 mm 0.00 in0.0 mm 0.05 in1.3 mm
01:00 AM 51.4°F10.8°C 48.3°F9.1°C 89% 4.6 mph SE7.4 kmh SE 10.0 mph16.1 kmh 29.62 in1003.0 mb 0.00 in0.0 mm 0.00 in0.0 mm 0.05 in1.3 mm
01:15 AM 51.6°F10.9°C 48.5°F9.2°C 89% 2.1 mph SSE3.4 kmh SSE 7.9 mph12.7 kmh 29.62 in1003.0 mb 0.00 in0.0 mm 0.00 in0.0 mm 0.05 in1.3 mm
01:30 AM 51.6°F10.9°C 48.5°F9.2°C 89% 1.4 mph S2.3 kmh S 6.8 mph10.9 kmh 29.59 in1002.0 mb 0.00 in0.0 mm 0.00 in0.0 mm 0.05 in1.3 mm
01:45 AM 52.0°F11.1°C 49.1°F9.5°C 90% 1.9 mph SE3.1 kmh SE 6.1 mph9.8 kmh 29.59 in1002.0 mb 0.00 in0.0 mm 0.00 in0.0 mm 0.05 in1.3 mm
02:00 AM 52.0°F11.1°C 49.1°F9.5°C 90% 5.5 mph SE8.9 kmh SE 11.5 mph18.5 kmh 29.62 in1003.0 mb 0.00 in0.0 mm 0.00 in0.0 mm 0.05 in1.3 mm
02:15 AM 52.0°F11.1°C 49.1°F9.5°C 90% 3.0 mph N4.8 kmh N 7.9 mph12.7 kmh 29.59 in1002.0 mb 0.00 in0.0 mm 0.00 in0.0 mm 0.05 in1.3 mm
02:30 AM 52.2°F11.2°C 49.6°F9.8°C 91% 3.7 mph NNW6.0 kmh NNW 9.7 mph15.6 kmh 29.62 in1003.0 mb 0.00 in0.0 mm 0.00 in0.0 mm 0.05 in1.3 mm
02:45 AM 52.0°F11.1°C 49.1°F9.5°C 90% 2.2 mph ESE3.5 kmh ESE 6.4 mph10.3 kmh 29.62 in1003.0 mb 0.00 in0.0 mm 0.00 in0.0 mm 0.05 in1.3 mm
03:00 AM 51.8°F11.0°C 49.0°F9.4°C 90% 0.4 mph E0.6 kmh E 4.3 mph6.9 kmh 29.62 in1003.0 mb 0.00 in0.0 mm 0.00 in0.0 mm 0.05 in1.3 mm
03:15 AM 51.4°F10.8°C 48.6°F9.2°C 90% 4.2 mph ESE6.8 kmh ESE 12.5 mph20.1 kmh 29.59 in1002.0 mb 0.00 in0.0 mm 0.00 in0.0 mm 0.05 in1.3 mm
03:30 AM 51.4°F10.8°C 48.6°F9.2°C 90% 3.1 mph SE5.0 kmh SE 9.7 mph15.6 kmh 29.62 in1003.0 mb 0.00 in0.0 mm 0.00 in0.0 mm 0.05 in1.3 mm
03:45 AM 51.4°F10.8°C 48.6°F9.2°C 90% 0.4 mph E0.6 kmh E 4.3 mph6.9 kmh 29.62 in1003.0 mb 0.00 in0.0 mm 0.00 in0.0 mm 0.05 in1.3 mm
04:00 AM 51.4°F10.8°C 48.6°F9.2°C 90% Calm Calm -- 29.62 in1003.0 mb 0.00 in0.0 mm 0.00 in0.0 mm 0.05 in1.3 mm
04:15 AM 51.1°F10.6°C 48.2°F9.0°C 90% Calm Calm -- 29.62 in1003.0 mb 0.00 in0.0 mm 0.00 in0.0 mm 0.05 in1.3 mm
04:30 AM 50.9°F10.5°C 48.1°F8.9°C 90% Calm Calm -- 29.62 in1003.0 mb 0.00 in0.0 mm 0.00 in0.0 mm 0.05 in1.3 mm
04:46 AM 50.9°F10.5°C 48.1°F8.9°C 90% Calm Calm -- 29.65 in1004.1 mb 0.00 in0.0 mm 0.00 in0.0 mm 0.05 in1.3 mm
05:00 AM 51.1°F10.6°C 48.5°F9.2°C 91% Calm Calm -- 29.62 in1003.0 mb 0.00 in0.0 mm 0.00 in0.0 mm 0.05 in1.3 mm
05:15 AM 51.6°F10.9°C 49.1°F9.5°C 91% Calm Calm -- 29.62 in1003.0 mb 0.00 in0.0 mm 0.00 in0.0 mm 0.05 in1.3 mm
05:30 AM 52.2°F11.2°C 49.6°F9.8°C 91% 1.4 mph W2.3 kmh W 8.9 mph14.3 kmh 29.62 in1003.0 mb 0.00 in0.0 mm 0.00 in0.0 mm 0.05 in1.3 mm
05:45 AM 52.9°F11.6°C 50.3°F10.2°C 91% 0.3 mph S0.5 kmh S 3.9 mph6.3 kmh 29.62 in1003.0 mb 0.00 in0.0 mm 0.00 in0.0 mm 0.05 in1.3 mm
06:00 AM 53.4°F11.9°C 50.9°F10.5°C 91% 3.0 mph W4.8 kmh W 11.5 mph18.5 kmh 29.65 in1004.1 mb 0.00 in0.0 mm 0.00 in0.0 mm 0.05 in1.3 mm
06:15 AM 53.2°F11.8°C 50.4°F10.2°C 90% 0.7 mph S1.1 kmh S 5.4 mph8.7 kmh 29.65 in1004.1 mb 0.00 in0.0 mm 0.00 in0.0 mm 0.05 in1.3 mm
06:30 AM 53.6°F12.0°C 50.7°F10.4°C 90% 2.8 mph SW4.5 kmh SW 6.8 mph10.9 kmh 29.65 in1004.1 mb 0.00 in0.0 mm 0.00 in0.0 mm 0.05 in1.3 mm
06:45 AM 54.0°F12.2°C 50.8°F10.4°C 89% 3.1 mph W5.0 kmh W 7.5 mph12.1 kmh 29.65 in1004.1 mb 0.00 in0.0 mm 0.00 in0.0 mm 0.05 in1.3 mm
07:00 AM 55.2°F12.9°C 52.0°F11.1°C 89% 3.6 mph W5.8 kmh W 9.7 mph15.6 kmh 29.68 in1005.1 mb 0.00 in0.0 mm 0.00 in0.0 mm 0.05 in1.3 mm
07:15 AM 56.7°F13.7°C 53.1°F11.7°C 88% 4.4 mph W7.1 kmh W 10.4 mph16.7 kmh 29.68 in1005.1 mb 0.00 in0.0 mm 0.00 in0.0 mm 0.05 in1.3 mm
07:30 AM 57.0°F13.9°C 52.9°F11.6°C 86% 3.8 mph W6.1 kmh W 7.9 mph12.7 kmh 29.68 in1005.1 mb 0.00 in0.0 mm 0.00 in0.0 mm 0.05 in1.3 mm
07:45 AM 57.2°F14.0°C 52.4°F11.3°C 84% 3.8 mph W6.1 kmh W 11.8 mph19.0 kmh 29.68 in1005.1 mb 0.00 in0.0 mm 0.00 in0.0 mm 0.05 in1.3 mm
08:00 AM 57.6°F14.2°C 52.4°F11.3°C 83% 2.7 mph W4.3 kmh W 7.9 mph12.7 kmh 29.68 in1005.1 mb 0.00 in0.0 mm 0.00 in0.0 mm 0.05 in1.3 mm
08:15 AM 58.6°F14.8°C 52.8°F11.6°C 81% 6.1 mph W9.8 kmh W 12.2 mph19.6 kmh 29.71 in1006.1 mb 0.00 in0.0 mm 0.00 in0.0 mm 0.05 in1.3 mm
08:30 AM 59.4°F15.2°C 53.2°F11.8°C 80% 3.5 mph W5.6 kmh W 9.7 mph15.6 kmh 29.65 in1004.1 mb 0.00 in0.0 mm 0.00 in0.0 mm 0.05 in1.3 mm
08:45 AM 59.5°F15.3°C 52.7°F11.5°C 78% 4.0 mph W6.4 kmh W 13.6 mph21.9 kmh 29.68 in1005.1 mb 0.00 in0.0 mm 0.00 in0.0 mm 0.05 in1.3 mm
09:00 AM 60.1°F15.6°C 52.5°F11.4°C 76% 4.1 mph W6.6 kmh W 10.4 mph16.7 kmh 29.68 in1005.1 mb 0.00 in0.0 mm 0.00 in0.0 mm 0.05 in1.3 mm
09:15 AM 59.5°F15.3°C 51.6°F10.9°C 75% 3.4 mph WNW5.5 kmh WNW 7.2 mph11.6 kmh 29.68 in1005.1 mb 0.00 in0.0 mm 0.00 in0.0 mm 0.05 in1.3 mm
09:30 AM 59.7°F15.4°C 51.4°F10.8°C 74% 5.7 mph W9.2 kmh W 11.5 mph18.5 kmh 29.68 in1005.1 mb 0.00 in0.0 mm 0.00 in0.0 mm 0.05 in1.3 mm
09:45 AM 60.6°F15.9°C 52.3°F11.3°C 74% 4.8 mph W7.7 kmh W 12.5 mph20.1 kmh 29.68 in1005.1 mb 0.00 in0.0 mm 0.00 in0.0 mm 0.05 in1.3 mm
10:00 AM 61.5°F16.4°C 52.0°F11.1°C 71% 5.3 mph W8.5 kmh W 12.5 mph20.1 kmh 29.68 in1005.1 mb 0.00 in0.0 mm 0.00 in0.0 mm 0.05 in1.3 mm
10:15 AM 61.9°F16.6°C 51.6°F10.9°C 69% 6.0 mph W9.7 kmh W 14.0 mph22.5 kmh 29.71 in1006.1 mb 0.00 in0.0 mm 0.00 in0.0 mm 0.05 in1.3 mm
10:30 AM 62.4°F16.9°C 51.7°F10.9°C 68% 6.7 mph W10.8 kmh W 17.2 mph27.7 kmh 29.71 in1006.1 mb 0.00 in0.0 mm 0.00 in0.0 mm 0.05 in1.3 mm
10:45 AM 62.4°F16.9°C 50.9°F10.5°C 66% 6.0 mph W9.7 kmh W 12.5 mph20.1 kmh 29.71 in1006.1 mb 0.00 in0.0 mm 0.00 in0.0 mm 0.05 in1.3 mm
11:00 AM 63.5°F17.5°C 51.9°F11.1°C 66% 5.8 mph WSW9.3 kmh WSW 16.8 mph27.0 kmh 29.71 in1006.1 mb 0.00 in0.0 mm 0.00 in0.0 mm 0.05 in1.3 mm
11:15 AM 63.7°F17.6°C 51.3°F10.7°C 64% 6.6 mph W10.6 kmh W 15.4 mph24.8 kmh 29.71 in1006.1 mb 0.00 in0.0 mm 0.00 in0.0 mm 0.05 in1.3 mm
11:30 AM 64.6°F18.1°C 52.1°F11.2°C 64% 6.6 mph W10.6 kmh W 16.8 mph27.0 kmh 29.71 in1006.1 mb 0.00 in0.0 mm 0.00 in0.0 mm 0.05 in1.3 mm
11:45 AM 63.3°F17.4°C 50.5°F10.3°C 63% 5.0 mph W8.0 kmh W 12.5 mph20.1 kmh 29.71 in1006.1 mb 0.00 in0.0 mm 0.00 in0.0 mm 0.05 in1.3 mm
12:00 PM 62.6°F17.0°C 49.8°F9.9°C 63% 7.1 mph W11.4 kmh W 17.2 mph27.7 kmh 29.71 in1006.1 mb 0.00 in0.0 mm 0.00 in0.0 mm 0.05 in1.3 mm
12:15 PM 62.2°F16.8°C 49.9°F9.9°C 64% 5.7 mph WSW9.2 kmh WSW 12.9 mph20.8 kmh 29.74 in1007.1 mb 0.00 in0.0 mm 0.00 in0.0 mm 0.05 in1.3 mm
12:30 PM 63.0°F17.2°C 50.2°F10.1°C 63% 6.3 mph WSW10.1 kmh WSW 22.5 mph36.2 kmh 29.74 in1007.1 mb 0.00 in0.0 mm 0.00 in0.0 mm 0.05 in1.3 mm
12:46 PM 63.7°F17.6°C 50.8°F10.4°C 63% 6.4 mph WNW10.3 kmh WNW 20.0 mph32.2 kmh 29.74 in1007.1 mb 0.00 in0.0 mm 0.00 in0.0 mm 0.05 in1.3 mm
01:00 PM 63.7°F17.6°C 50.4°F10.2°C 62% 6.3 mph W10.1 kmh W 15.7 mph25.3 kmh 29.74 in1007.1 mb 0.00 in0.0 mm 0.00 in0.0 mm 0.05 in1.3 mm
01:15 PM 64.6°F18.1°C 50.8°F10.4°C 61% 6.7 mph W10.8 kmh W 16.5 mph26.6 kmh 29.74 in1007.1 mb 0.00 in0.0 mm 0.00 in0.0 mm 0.05 in1.3 mm
01:30 PM 64.8°F18.2°C 49.6°F9.8°C 58% 7.3 mph W11.7 kmh W 22.5 mph36.2 kmh 29.74 in1007.1 mb 0.00 in0.0 mm 0.00 in0.0 mm 0.05 in1.3 mm
01:45 PM 65.3°F18.5°C 50.1°F10.1°C 58% 6.4 mph W10.3 kmh W 13.6 mph21.9 kmh 29.74 in1007.1 mb 0.00 in0.0 mm 0.00 in0.0 mm 0.05 in1.3 mm
02:00 PM 64.4°F18.0°C 47.9°F8.8°C 55% 7.9 mph WNW12.7 kmh WNW 20.4 mph32.8 kmh 29.74 in1007.1 mb 0.00 in0.0 mm 0.00 in0.0 mm 0.05 in1.3 mm
02:15 PM 64.8°F18.2°C 48.2°F9.0°C 55% 6.3 mph W10.1 kmh W 14.0 mph22.5 kmh 29.74 in1007.1 mb 0.00 in0.0 mm 0.00 in0.0 mm 0.05 in1.3 mm
02:30 PM 64.0°F17.8°C 48.0°F8.9°C 56% 5.8 mph W9.3 kmh W 15.0 mph24.1 kmh 29.74 in1007.1 mb 0.00 in0.0 mm 0.00 in0.0 mm 0.05 in1.3 mm
02:45 PM 64.2°F17.9°C 47.2°F8.4°C 54% 8.2 mph W13.2 kmh W 18.3 mph29.5 kmh 29.74 in1007.1 mb 0.00 in0.0 mm 0.00 in0.0 mm 0.05 in1.3 mm
03:00 PM 64.4°F18.0°C 46.4°F8.0°C 52% 7.6 mph W12.2 kmh W 16.1 mph25.9 kmh 29.74 in1007.1 mb 0.00 in0.0 mm 0.00 in0.0 mm 0.05 in1.3 mm
03:15 PM 64.0°F17.8°C 46.1°F7.8°C 52% 6.6 mph WNW10.6 kmh WNW 16.8 mph27.0 kmh 29.77 in1008.1 mb 0.00 in0.0 mm 0.00 in0.0 mm 0.05 in1.3 mm
03:30 PM 64.2°F17.9°C 46.7°F8.2°C 53% 5.3 mph WNW8.5 kmh WNW 16.5 mph26.6 kmh 29.77 in1008.1 mb 0.00 in0.0 mm 0.00 in0.0 mm 0.05 in1.3 mm
03:45 PM 63.3°F17.4°C 45.4°F7.4°C 52% 6.5 mph WNW10.5 kmh WNW 16.8 mph27.0 kmh 29.77 in1008.1 mb 0.00 in0.0 mm 0.00 in0.0 mm 0.05 in1.3 mm
04:00 PM 63.3°F17.4°C 45.4°F7.4°C 52% 6.5 mph WNW10.5 kmh WNW 22.2 mph35.7 kmh 29.77 in1008.1 mb 0.00 in0.0 mm 0.00 in0.0 mm 0.05 in1.3 mm
04:15 PM 63.3°F17.4°C 45.9°F7.7°C 53% 6.2 mph WNW10.0 kmh WNW 15.7 mph25.3 kmh 29.80 in1009.1 mb 0.00 in0.0 mm 0.00 in0.0 mm 0.05 in1.3 mm
04:30 PM 62.8°F17.1°C 45.4°F7.4°C 53% 5.8 mph WNW9.3 kmh WNW 16.1 mph25.9 kmh 29.80 in1009.1 mb 0.00 in0.0 mm 0.00 in0.0 mm 0.05 in1.3 mm
04:45 PM 63.0°F17.2°C 45.6°F7.6°C 53% 5.3 mph WNW8.5 kmh WNW 20.0 mph32.2 kmh 29.80 in1009.1 mb 0.00 in0.0 mm 0.00 in0.0 mm 0.05 in1.3 mm
05:00 PM 63.3°F17.4°C 46.4°F8.0°C 54% 3.9 mph W6.3 kmh W 11.5 mph18.5 kmh 29.80 in1009.1 mb 0.00 in0.0 mm 0.00 in0.0 mm 0.05 in1.3 mm
05:15 PM 62.8°F17.1°C 45.4°F7.4°C 53% 5.4 mph W8.7 kmh W 20.0 mph32.2 kmh 29.80 in1009.1 mb 0.00 in0.0 mm 0.00 in0.0 mm 0.05 in1.3 mm
05:30 PM 61.9°F16.6°C 45.0°F7.2°C 54% 4.8 mph WNW7.7 kmh WNW 15.0 mph24.1 kmh 29.80 in1009.1 mb 0.00 in0.0 mm 0.00 in0.0 mm 0.05 in1.3 mm
05:45 PM 61.5°F16.4°C 44.7°F7.1°C 54% 3.6 mph WNW5.8 kmh WNW 11.5 mph18.5 kmh 29.80 in1009.1 mb 0.00 in0.0 mm 0.00 in0.0 mm 0.05 in1.3 mm
06:00 PM 61.0°F16.1°C 44.7°F7.1°C 55% 2.5 mph W4.0 kmh W 8.9 mph14.3 kmh 29.80 in1009.1 mb 0.00 in0.0 mm 0.00 in0.0 mm 0.05 in1.3 mm
06:15 PM 60.4°F15.8°C 44.7°F7.1°C 56% 0.7 mph W1.1 kmh W 4.7 mph7.6 kmh 29.80 in1009.1 mb 0.00 in0.0 mm 0.00 in0.0 mm 0.05 in1.3 mm
06:30 PM 59.9°F15.5°C 44.6°F7.0°C 57% 1.5 mph W2.4 kmh W 5.7 mph9.2 kmh 29.80 in1009.1 mb 0.00 in0.0 mm 0.00 in0.0 mm 0.05 in1.3 mm
06:45 PM 59.4°F15.2°C 45.0°F7.2°C 59% 0.5 mph W0.8 kmh W 3.2 mph5.1 kmh 29.83 in1010.2 mb 0.00 in0.0 mm 0.00 in0.0 mm 0.05 in1.3 mm
07:00 PM 58.6°F14.8°C 45.2°F7.3°C 61% Calm Calm -- 29.80 in1009.1 mb 0.00 in0.0 mm 0.00 in0.0 mm 0.05 in1.3 mm
07:15 PM 57.9°F14.4°C 45.0°F7.2°C 62% Calm Calm -- 29.80 in1009.1 mb 0.00 in0.0 mm 0.00 in0.0 mm 0.05 in1.3 mm
07:30 PM 56.8°F13.8°C 44.4°F6.9°C 63% 0.4 mph SE0.6 kmh SE 5.4 mph8.7 kmh 29.80 in1009.1 mb 0.00 in0.0 mm 0.00 in0.0 mm 0.05 in1.3 mm
07:45 PM 56.1°F13.4°C 44.1°F6.7°C 64% 3.5 mph S5.6 kmh S 12.9 mph20.8 kmh 29.80 in1009.1 mb 0.00 in0.0 mm 0.00 in0.0 mm 0.05 in1.3 mm
08:00 PM 56.5°F13.6°C 46.8°F8.2°C 70% 6.0 mph SE9.7 kmh SE 12.2 mph19.6 kmh 29.80 in1009.1 mb 0.00 in0.0 mm 0.00 in0.0 mm 0.05 in1.3 mm
08:15 PM 56.7°F13.7°C 47.4°F8.6°C 71% 0.4 mph ESE0.6 kmh ESE 6.4 mph10.3 kmh 29.77 in1008.1 mb 0.00 in0.0 mm 0.00 in0.0 mm 0.05 in1.3 mm
08:30 PM 56.8°F13.8°C 47.9°F8.8°C 72% 3.2 mph S5.1 kmh S 12.2 mph19.6 kmh 29.77 in1008.1 mb 0.00 in0.0 mm 0.00 in0.0 mm 0.05 in1.3 mm
09:00 PM 56.3°F13.5°C 47.0°F8.3°C 71% 2.4 mph S3.9 kmh S 7.9 mph12.7 kmh 29.77 in1008.1 mb 0.00 in0.0 mm 0.00 in0.0 mm 0.05 in1.3 mm
09:06 PM 56.5°F13.6°C 47.2°F8.4°C 71% 2.0 mph S3.2 kmh S 2.5 mph4.0 kmh 29.74 in1007.1 mb 0.00 in0.0 mm 0.00 in0.0 mm 0.05 in1.3 mm
09:15 PM 55.9°F13.3°C 46.3°F7.9°C 70% 4.3 mph S6.9 kmh S 9.3 mph15.0 kmh 29.77 in1008.1 mb 0.00 in0.0 mm 0.00 in0.0 mm 0.05 in1.3 mm
09:30 PM 55.9°F13.3°C 46.3°F7.9°C 70% 1.9 mph S3.1 kmh S 6.4 mph10.3 kmh 29.80 in1009.1 mb 0.00 in0.0 mm 0.00 in0.0 mm 0.05 in1.3 mm
09:45 PM 55.8°F13.2°C 46.9°F8.3°C 72% 1.5 mph S2.4 kmh S 5.0 mph8.0 kmh 29.77 in1008.1 mb 0.00 in0.0 mm 0.00 in0.0 mm 0.05 in1.3 mm
10:00 PM 55.8°F13.2°C 47.2°F8.4°C 73% 0.2 mph SSE0.3 kmh SSE 2.5 mph4.0 kmh 29.80 in1009.1 mb 0.00 in0.0 mm 0.00 in0.0 mm 0.05 in1.3 mm
10:15 PM 55.6°F13.1°C 47.4°F8.6°C 74% Calm Calm -- 29.80 in1009.1 mb 0.00 in0.0 mm 0.00 in0.0 mm 0.05 in1.3 mm
10:30 PM 55.2°F12.9°C 48.1°F8.9°C 77% 1.3 mph ESE2.1 kmh ESE 6.8 mph10.9 kmh 29.80 in1009.1 mb 0.00 in0.0 mm 0.00 in0.0 mm 0.05 in1.3 mm
10:45 PM 54.5°F12.5°C 47.8°F8.8°C 78% 4.1 mph ESE6.6 kmh ESE 10.7 mph17.2 kmh 29.80 in1009.1 mb 0.06 in1.5 mm 0.24 in6.1 mm 0.10 in2.5 mm
11:00 PM 54.1°F12.3°C 47.8°F8.8°C 79% 5.7 mph SE9.2 kmh SE 10.0 mph16.1 kmh 29.77 in1008.1 mb 0.06 in1.5 mm 0.00 in0.0 mm 0.11 in2.8 mm
11:15 PM 54.0°F12.2°C 47.9°F8.8°C 80% 8.1 mph SE13.0 kmh SE 14.0 mph22.5 kmh 29.77 in1008.1 mb 0.06 in1.5 mm 0.00 in0.0 mm 0.11 in2.8 mm
11:30 PM 53.6°F12.0°C 47.9°F8.8°C 81% 7.8 mph SE12.6 kmh SE 14.0 mph22.5 kmh 29.77 in1008.1 mb 0.06 in1.5 mm 0.00 in0.0 mm 0.11 in2.8 mm
11:45 PM 53.4°F11.9°C 48.1°F8.9°C 82% 7.6 mph SE12.2 kmh SE 13.6 mph21.9 kmh 29.77 in1008.1 mb 0.00 in0.0 mm 0.00 in0.0 mm 0.11 in2.8 mm